EGPN/DND METAR and TAF weather

Enter ICAO airport designator
Station Type Date Time Source
EGPN METAR 2019/10/18 21:50 UTC NOAA

EGPN 182150Z 02009KT 9999 VCSH FEW018 SCT024 10/09 Q0994


Station Type Date Time Source
EGPN Decoded METAR 2019/10/18 21:50 UTC NOAA

Dundee / Riverside, United Kingdom (EGPN) 56-27N 003-01W
Oct 18, 2019 - 05:50 PM EDT / 2019.10.18 2150 UTC
Wind: from the NNE (020 degrees) at 10 MPH (9 KT):0
Visibility: greater than 7 mile(s):0
Sky conditions: partly cloudy
Weather: showers in the vicinity
Temperature: 50 F (10 C)
Dew Point: 48 F (9 C)
Relative Humidity: 93%
Pressure (altimeter): 29.35 in. Hg (0994 hPa)
ob: EGPN 182150Z 02009KT 9999 VCSH FEW018 SCT024 10/09 Q0994
cycle: 22

Station Type Date Time Source
EGPN TAF 2019/01/15 18:56 UTC NOAA

TAF EGPN 151750Z 1518/1621 CNL

Example: see airport list